sensor_id;sensor_type;location;lat;lon;timestamp;temperature;humidity
27314;DHT22;14800;48.174;9.798;2024-03-23T00:55:54;12.10;67.10
27314;DHT22;14800;48.174;9.798;2024-03-23T00:58:20;12.10;67.00
27314;DHT22;14800;48.174;9.798;2024-03-23T01:00:46;12.20;67.10
27314;DHT22;14800;48.174;9.798;2024-03-23T01:03:11;12.20;67.00
27314;DHT22;14800;48.174;9.798;2024-03-23T01:05:37;12.20;67.00
27314;DHT22;14800;48.174;9.798;2024-03-23T01:08:02;12.20;67.10
27314;DHT22;14800;48.174;9.798;2024-03-23T01:10:28;12.20;67.10
27314;DHT22;14800;48.174;9.798;2024-03-23T01:12:53;12.20;67.00
27314;DHT22;14800;48.174;9.798;2024-03-23T01:15:19;12.30;67.10
27314;DHT22;14800;48.174;9.798;2024-03-23T01:17:45;12.30;66.90
27314;DHT22;14800;48.174;9.798;2024-03-23T01:20:10;12.30;66.90
27314;DHT22;14800;48.174;9.798;2024-03-23T01:22:36;12.40;66.90
27314;DHT22;14800;48.174;9.798;2024-03-23T01:25:01;12.40;66.90
27314;DHT22;14800;48.174;9.798;2024-03-23T01:27:27;12.40;66.80
27314;DHT22;14800;48.174;9.798;2024-03-23T01:29:52;12.50;66.70
27314;DHT22;14800;48.174;9.798;2024-03-23T01:32:18;12.50;66.60
27314;DHT22;14800;48.174;9.798;2024-03-23T01:34:44;12.60;66.60
27314;DHT22;14800;48.174;9.798;2024-03-23T01:37:10;12.60;66.50
27314;DHT22;14800;48.174;9.798;2024-03-23T01:39:35;12.60;66.40
27314;DHT22;14800;48.174;9.798;2024-03-23T01:42:01;12.60;66.40
27314;DHT22;14800;48.174;9.798;2024-03-23T01:44:27;12.60;66.20
27314;DHT22;14800;48.174;9.798;2024-03-23T01:46:52;12.70;66.20
27314;DHT22;14800;48.174;9.798;2024-03-23T01:49:18;12.70;66.20
27314;DHT22;14800;48.174;9.798;2024-03-23T01:51:44;12.70;66.20
27314;DHT22;14800;48.174;9.798;2024-03-23T01:54:10;12.80;66.10
27314;DHT22;14800;48.174;9.798;2024-03-23T01:56:36;12.70;66.00
27314;DHT22;14800;48.174;9.798;2024-03-23T01:59:08;12.70;66.10
27314;DHT22;14800;48.174;9.798;2024-03-23T02:01:35;12.70;66.00
27314;DHT22;14800;48.174;9.798;2024-03-23T02:04:04;12.70;66.00
27314;DHT22;14800;48.174;9.798;2024-03-23T02:06:29;12.60;65.90
27314;DHT22;14800;48.174;9.798;2024-03-23T02:08:55;12.70;66.00
27314;DHT22;14800;48.174;9.798;2024-03-23T02:11:21;12.70;66.00
27314;DHT22;14800;48.174;9.798;2024-03-23T02:13:47;12.60;65.90
27314;DHT22;14800;48.174;9.798;2024-03-23T02:16:13;12.60;65.90
27314;DHT22;14800;48.174;9.798;2024-03-23T02:18:39;12.50;66.00
27314;DHT22;14800;48.174;9.798;2024-03-23T02:21:05;12.50;66.00
27314;DHT22;14800;48.174;9.798;2024-03-23T02:23:30;12.50;66.00
27314;DHT22;14800;48.174;9.798;2024-03-23T02:25:56;12.40;66.10
27314;DHT22;14800;48.174;9.798;2024-03-23T02:28:22;12.40;66.20
27314;DHT22;14800;48.174;9.798;2024-03-23T02:30:51;12.40;66.30
27314;DHT22;14800;48.174;9.798;2024-03-23T02:33:17;12.40;66.40
27314;DHT22;14800;48.174;9.798;2024-03-23T02:35:46;12.30;66.40
27314;DHT22;14800;48.174;9.798;2024-03-23T02:38:12;12.30;66.60
27314;DHT22;14800;48.174;9.798;2024-03-23T02:40:38;12.30;66.50
27314;DHT22;14800;48.174;9.798;2024-03-23T02:43:04;12.30;66.60
27314;DHT22;14800;48.174;9.798;2024-03-23T02:45:30;12.20;66.60
27314;DHT22;14800;48.174;9.798;2024-03-23T02:47:55;12.20;66.70
27314;DHT22;14800;48.174;9.798;2024-03-23T02:50:21;12.20;66.80
27314;DHT22;14800;48.174;9.798;2024-03-23T02:52:47;12.20;66.90
27314;DHT22;14800;48.174;9.798;2024-03-23T02:55:14;12.10;67.00
27314;DHT22;14800;48.174;9.798;2024-03-23T02:57:41;12.10;67.20
27314;DHT22;14800;48.174;9.798;2024-03-23T03:00:07;12.10;67.30
27314;DHT22;14800;48.174;9.798;2024-03-23T03:02:33;12.10;67.40
27314;DHT22;14800;48.174;9.798;2024-03-23T03:04:59;12.10;67.50
27314;DHT22;14800;48.174;9.798;2024-03-23T03:07:25;12.20;67.60
27314;DHT22;14800;48.174;9.798;2024-03-23T03:09:50;12.20;67.60
27314;DHT22;14800;48.174;9.798;2024-03-23T03:12:16;12.10;67.50
27314;DHT22;14800;48.174;9.798;2024-03-23T03:14:42;12.10;67.60
27314;DHT22;14800;48.174;9.798;2024-03-23T03:17:07;12.10;67.60
27314;DHT22;14800;48.174;9.798;2024-03-23T03:19:33;12.10;67.60
27314;DHT22;14800;48.174;9.798;2024-03-23T03:21:59;12.10;67.70
27314;DHT22;14800;48.174;9.798;2024-03-23T03:24:24;12.10;67.70
27314;DHT22;14800;48.174;9.798;2024-03-23T03:26:50;12.10;67.70
27314;DHT22;14800;48.174;9.798;2024-03-23T03:29:16;12.10;67.80
27314;DHT22;14800;48.174;9.798;2024-03-23T03:31:44;12.10;67.80
27314;DHT22;14800;48.174;9.798;2024-03-23T03:34:10;12.10;67.90
27314;DHT22;14800;48.174;9.798;2024-03-23T03:36:36;12.10;67.80
27314;DHT22;14800;48.174;9.798;2024-03-23T03:39:01;12.10;68.00
27314;DHT22;14800;48.174;9.798;2024-03-23T03:41:29;12.10;68.80
27314;DHT22;14800;48.174;9.798;2024-03-23T03:43:54;12.10;68.10
27314;DHT22;14800;48.174;9.798;2024-03-23T03:46:20;12.10;68.10
27314;DHT22;14800;48.174;9.798;2024-03-23T03:48:46;12.10;68.10
27314;DHT22;14800;48.174;9.798;2024-03-23T03:51:13;12.10;68.10
27314;DHT22;14800;48.174;9.798;2024-03-23T03:53:39;12.10;68.10
27314;DHT22;14800;48.174;9.798;2024-03-23T03:56:05;12.10;68.20
27314;DHT22;14800;48.174;9.798;2024-03-23T03:58:30;12.10;69.00
27314;DHT22;14800;48.174;9.798;2024-03-23T04:00:56;12.20;69.10
27314;DHT22;14800;48.174;9.798;2024-03-23T04:03:21;12.20;68.20
27314;DHT22;14800;48.174;9.798;2024-03-23T04:05:52;12.30;68.30
27314;DHT22;14800;48.174;9.798;2024-03-23T04:08:18;12.30;68.60
27314;DHT22;14800;48.174;9.798;2024-03-23T04:10:44;12.40;68.60
27314;DHT22;14800;48.174;9.798;2024-03-23T04:13:09;12.50;69.50
27314;DHT22;14800;48.174;9.798;2024-03-23T04:15:35;12.60;68.60
27314;DHT22;14800;48.174;9.798;2024-03-23T04:18:00;12.70;68.60
27314;DHT22;14800;48.174;9.798;2024-03-23T04:20:26;12.70;68.50
27314;DHT22;14800;48.174;9.798;2024-03-23T04:22:51;12.80;68.30
27314;DHT22;14800;48.174;9.798;2024-03-23T04:25:17;12.80;68.20
27314;DHT22;14800;48.174;9.798;2024-03-23T04:27:45;12.90;68.10
27314;DHT22;14800;48.174;9.798;2024-03-23T04:30:12;12.90;68.00
27314;DHT22;14800;48.174;9.798;2024-03-23T04:32:37;12.90;67.90
27314;DHT22;14800;48.174;9.798;2024-03-23T04:35:04;12.90;67.70
27314;DHT22;14800;48.174;9.798;2024-03-23T04:37:37;12.90;67.60
27314;DHT22;14800;48.174;9.798;2024-03-23T04:40:04;13.00;67.70
27314;DHT22;14800;48.174;9.798;2024-03-23T04:42:30;13.00;67.70
27314;DHT22;14800;48.174;9.798;2024-03-23T04:44:56;12.90;67.60
27314;DHT22;14800;48.174;9.798;2024-03-23T04:47:22;13.00;67.60
27314;DHT22;14800;48.174;9.798;2024-03-23T04:49:48;13.00;67.50
27314;DHT22;14800;48.174;9.798;2024-03-23T04:52:13;13.00;67.40
27314;DHT22;14800;48.174;9.798;2024-03-23T04:54:39;12.90;67.40
27314;DHT22;14800;48.174;9.798;2024-03-23T04:57:06;12.90;67.30
27314;DHT22;14800;48.174;9.798;2024-03-23T04:59:31;12.90;67.30
27314;DHT22;14800;48.174;9.798;2024-03-23T05:01:57;12.90;67.30
27314;DHT22;14800;48.174;9.798;2024-03-23T05:04:23;12.90;67.40
27314;DHT22;14800;48.174;9.798;2024-03-23T05:06:48;12.80;67.30
27314;DHT22;14800;48.174;9.798;2024-03-23T05:09:14;12.80;67.40
27314;DHT22;14800;48.174;9.798;2024-03-23T05:11:40;12.80;67.40
27314;DHT22;14800;48.174;9.798;2024-03-23T05:14:07;12.70;67.60
27314;DHT22;14800;48.174;9.798;2024-03-23T05:16:32;12.70;67.60
27314;DHT22;14800;48.174;9.798;2024-03-23T05:18:58;12.70;67.80
27314;DHT22;14800;48.174;9.798;2024-03-23T05:21:24;12.70;67.80
27314;DHT22;14800;48.174;9.798;2024-03-23T05:23:49;12.60;67.80
27314;DHT22;14800;48.174;9.798;2024-03-23T05:26:16;12.60;67.80
27314;DHT22;14800;48.174;9.798;2024-03-23T05:28:42;12.60;67.80
27314;DHT22;14800;48.174;9.798;2024-03-23T05:31:07;12.50;68.00
27314;DHT22;14800;48.174;9.798;2024-03-23T05:33:35;12.50;68.10
27314;DHT22;14800;48.174;9.798;2024-03-23T05:36:01;12.50;68.20
27314;DHT22;14800;48.174;9.798;2024-03-23T05:38:27;12.40;68.40
27314;DHT22;14800;48.174;9.798;2024-03-23T05:40:54;12.40;68.50
27314;DHT22;14800;48.174;9.798;2024-03-23T05:43:20;12.40;68.60
27314;DHT22;14800;48.174;9.798;2024-03-23T05:45:46;12.40;68.60
27314;DHT22;14800;48.174;9.798;2024-03-23T05:48:11;12.40;68.80
27314;DHT22;14800;48.174;9.798;2024-03-23T05:50:37;12.50;68.90
27314;DHT22;14800;48.174;9.798;2024-03-23T05:53:03;12.40;68.90
27314;DHT22;14800;48.174;9.798;2024-03-23T05:55:30;12.40;69.00
27314;DHT22;14800;48.174;9.798;2024-03-23T05:57:56;12.40;69.20
27314;DHT22;14800;48.174;9.798;2024-03-23T06:00:21;12.40;69.40
27314;DHT22;14800;48.174;9.798;2024-03-23T06:02:47;12.40;69.50
27314;DHT22;14800;48.174;9.798;2024-03-23T06:05:13;12.50;69.90
27314;DHT22;14800;48.174;9.798;2024-03-23T06:07:39;12.40;70.40
27314;DHT22;14800;48.174;9.798;2024-03-23T06:10:05;12.50;70.80
27314;DHT22;14800;48.174;9.798;2024-03-23T06:12:31;12.50;71.10
27314;DHT22;14800;48.174;9.798;2024-03-23T06:14:57;12.50;71.40
27314;DHT22;14800;48.174;9.798;2024-03-23T06:17:22;12.50;71.80
27314;DHT22;14800;48.174;9.798;2024-03-23T06:19:48;12.60;72.30
27314;DHT22;14800;48.174;9.798;2024-03-23T06:22:14;12.60;72.70
27314;DHT22;14800;48.174;9.798;2024-03-23T06:24:40;12.60;73.00
27314;DHT22;14800;48.174;9.798;2024-03-23T06:27:06;12.70;73.20
27314;DHT22;14800;48.174;9.798;2024-03-23T06:29:31;12.70;73.40
27314;DHT22;14800;48.174;9.798;2024-03-23T06:31:57;12.70;73.70
27314;DHT22;14800;48.174;9.798;2024-03-23T06:34:23;12.80;74.40
27314;DHT22;14800;48.174;9.798;2024-03-23T06:36:49;12.80;73.70
27314;DHT22;14800;48.174;9.798;2024-03-23T06:39:15;12.90;73.90
27314;DHT22;14800;48.174;9.798;2024-03-23T06:41:42;12.90;74.40
27314;DHT22;14800;48.174;9.798;2024-03-23T06:44:08;12.90;74.80
27314;DHT22;14800;48.174;9.798;2024-03-23T06:46:34;12.90;75.40
27314;DHT22;14800;48.174;9.798;2024-03-23T06:48:59;12.90;75.80
27314;DHT22;14800;48.174;9.798;2024-03-23T06:51:25;12.80;75.10
27314;DHT22;14800;48.174;9.798;2024-03-23T06:53:50;12.80;74.90
27314;DHT22;14800;48.174;9.798;2024-03-23T06:56:16;12.70;75.40
27314;DHT22;14800;48.174;9.798;2024-03-23T06:58:41;12.60;76.00
27314;DHT22;14800;48.174;9.798;2024-03-23T07:01:07;12.50;76.50
27314;DHT22;14800;48.174;9.798;2024-03-23T07:03:33;12.40;77.20
27314;DHT22;14800;48.174;9.798;2024-03-23T07:05:58;12.30;77.80
27314;DHT22;14800;48.174;9.798;2024-03-23T07:08:24;12.20;78.30
27314;DHT22;14800;48.174;9.798;2024-03-23T07:10:50;12.10;78.70
27314;DHT22;14800;48.174;9.798;2024-03-23T07:13:15;12.00;79.10
27314;DHT22;14800;48.174;9.798;2024-03-23T07:15:42;11.90;79.80
27314;DHT22;14800;48.174;9.798;2024-03-23T07:18:08;11.80;80.40
27314;DHT22;14800;48.174;9.798;2024-03-23T07:20:34;11.80;80.60
27314;DHT22;14800;48.174;9.798;2024-03-23T07:22:59;11.70;80.90
27314;DHT22;14800;48.174;9.798;2024-03-23T07:25:25;11.60;81.60
27314;DHT22;14800;48.174;9.798;2024-03-23T07:27:53;11.60;81.90
27314;DHT22;14800;48.174;9.798;2024-03-23T07:30:19;11.50;82.00
27314;DHT22;14800;48.174;9.798;2024-03-23T07:32:44;11.50;82.50
27314;DHT22;14800;48.174;9.798;2024-03-23T07:35:10;11.50;83.10
27314;DHT22;14800;48.174;9.798;2024-03-23T07:37:36;11.50;83.50
27314;DHT22;14800;48.174;9.798;2024-03-23T07:40:01;11.40;83.60
27314;DHT22;14800;48.174;9.798;2024-03-23T07:42:29;11.50;83.60
27314;DHT22;14800;48.174;9.798;2024-03-23T07:44:54;11.50;84.00
27314;DHT22;14800;48.174;9.798;2024-03-23T07:47:22;11.40;84.00
27314;DHT22;14800;48.174;9.798;2024-03-23T07:49:48;11.40;84.00
27314;DHT22;14800;48.174;9.798;2024-03-23T07:52:13;11.40;84.40
27314;DHT22;14800;48.174;9.798;2024-03-23T07:54:39;11.40;84.50
27314;DHT22;14800;48.174;9.798;2024-03-23T07:57:05;11.40;84.30
27314;DHT22;14800;48.174;9.798;2024-03-23T07:59:31;11.40;84.20
27314;DHT22;14800;48.174;9.798;2024-03-23T08:01:59;11.40;83.40
27314;DHT22;14800;48.174;9.798;2024-03-23T08:04:25;11.30;83.30
27314;DHT22;14800;48.174;9.798;2024-03-23T08:06:51;11.30;83.60
27314;DHT22;14800;48.174;9.798;2024-03-23T08:09:16;11.10;83.30
27314;DHT22;14800;48.174;9.798;2024-03-23T08:11:42;11.10;82.60
27314;DHT22;14800;48.174;9.798;2024-03-23T08:14:10;11.00;81.20
27314;DHT22;14800;48.174;9.798;2024-03-23T08:16:36;10.90;80.50
27314;DHT22;14800;48.174;9.798;2024-03-23T08:19:01;10.80;81.30
27314;DHT22;14800;48.174;9.798;2024-03-23T08:21:29;10.80;80.90
27314;DHT22;14800;48.174;9.798;2024-03-23T08:23:54;10.70;81.00
27314;DHT22;14800;48.174;9.798;2024-03-23T08:26:20;10.70;81.10
27314;DHT22;14800;48.174;9.798;2024-03-23T08:28:46;10.70;81.30
27314;DHT22;14800;48.174;9.798;2024-03-23T08:31:12;10.60;81.30
27314;DHT22;14800;48.174;9.798;2024-03-23T08:33:38;10.60;80.90
27314;DHT22;14800;48.174;9.798;2024-03-23T08:36:08;10.60;81.10
27314;DHT22;14800;48.174;9.798;2024-03-23T08:38:34;10.60;81.20
27314;DHT22;14800;48.174;9.798;2024-03-23T08:43:29;10.60;80.30
27314;DHT22;14800;48.174;9.798;2024-03-23T08:46:12;10.50;79.90
27314;DHT22;14800;48.174;9.798;2024-03-23T08:48:39;10.50;80.30
27314;DHT22;14800;48.174;9.798;2024-03-23T08:51:06;10.50;80.30
27314;DHT22;14800;48.174;9.798;2024-03-23T08:53:33;10.50;80.10
27314;DHT22;14800;48.174;9.798;2024-03-23T08:55:59;10.50;79.60
27314;DHT22;14800;48.174;9.798;2024-03-23T08:58:29;10.50;79.10
27314;DHT22;14800;48.174;9.798;2024-03-23T09:00:56;10.40;78.30
27314;DHT22;14800;48.174;9.798;2024-03-23T09:03:25;10.40;78.70
27314;DHT22;14800;48.174;9.798;2024-03-23T09:05:51;10.30;78.60
27314;DHT22;14800;48.174;9.798;2024-03-23T09:08:18;10.20;78.90
27314;DHT22;14800;48.174;9.798;2024-03-23T09:10:43;10.20;78.90
27314;DHT22;14800;48.174;9.798;2024-03-23T09:13:09;10.10;79.70
27314;DHT22;14800;48.174;9.798;2024-03-23T09:15:37;10.00;80.30
27314;DHT22;14800;48.174;9.798;2024-03-23T09:18:03;10.00;80.70
27314;DHT22;14800;48.174;9.798;2024-03-23T09:20:32;9.90;80.60
27314;DHT22;14800;48.174;9.798;2024-03-23T09:22:58;9.90;80.30
27314;DHT22;14800;48.174;9.798;2024-03-23T09:25:23;9.80;79.00
27314;DHT22;14800;48.174;9.798;2024-03-23T09:27:50;9.80;79.30
27314;DHT22;14800;48.174;9.798;2024-03-23T09:30:15;9.70;78.90
27314;DHT22;14800;48.174;9.798;2024-03-23T09:32:43;9.70;78.60
27314;DHT22;14800;48.174;9.798;2024-03-23T09:35:09;9.80;78.80
27314;DHT22;14800;48.174;9.798;2024-03-23T09:37:34;9.80;79.50
27314;DHT22;14800;48.174;9.798;2024-03-23T09:40:00;9.90;77.30
27314;DHT22;14800;48.174;9.798;2024-03-23T09:42:25;9.90;76.20
27314;DHT22;14800;48.174;9.798;2024-03-23T09:44:51;10.00;74.80
27314;DHT22;14800;48.174;9.798;2024-03-23T09:47:18;10.00;72.90
27314;DHT22;14800;48.174;9.798;2024-03-23T09:49:44;10.00;71.40
27314;DHT22;14800;48.174;9.798;2024-03-23T09:52:10;10.00;71.10
27314;DHT22;14800;48.174;9.798;2024-03-23T09:54:35;10.00;70.20
27314;DHT22;14800;48.174;9.798;2024-03-23T09:57:01;10.00;70.90
27314;DHT22;14800;48.174;9.798;2024-03-23T09:59:29;10.00;71.40
27314;DHT22;14800;48.174;9.798;2024-03-23T10:01:55;10.10;70.10
27314;DHT22;14800;48.174;9.798;2024-03-23T10:04:41;10.10;70.00
27314;DHT22;14800;48.174;9.798;2024-03-23T10:07:14;10.10;70.60
27314;DHT22;14800;48.174;9.798;2024-03-23T10:09:40;10.20;71.20
27314;DHT22;14800;48.174;9.798;2024-03-23T10:12:12;10.20;69.60
27314;DHT22;14800;48.174;9.798;2024-03-23T10:14:42;10.30;68.80
27314;DHT22;14800;48.174;9.798;2024-03-23T10:17:18;10.20;67.00
27314;DHT22;14800;48.174;9.798;2024-03-23T10:19:48;10.20;66.80
27314;DHT22;14800;48.174;9.798;2024-03-23T10:22:24;10.20;66.50
27314;DHT22;14800;48.174;9.798;2024-03-23T10:24:50;10.20;67.80
27314;DHT22;14800;48.174;9.798;2024-03-23T10:27:20;10.20;68.20
27314;DHT22;14800;48.174;9.798;2024-03-23T10:29:46;10.20;66.60
27314;DHT22;14800;48.174;9.798;2024-03-23T10:32:14;10.30;67.20
27314;DHT22;14800;48.174;9.798;2024-03-23T10:34:41;10.30;67.80
27314;DHT22;14800;48.174;9.798;2024-03-23T10:37:07;10.30;67.60
27314;DHT22;14800;48.174;9.798;2024-03-23T10:39:37;10.40;68.30
27314;DHT22;14800;48.174;9.798;2024-03-23T10:42:07;10.30;68.10
27314;DHT22;14800;48.174;9.798;2024-03-23T10:44:34;10.30;67.70
27314;DHT22;14800;48.174;9.798;2024-03-23T10:47:00;10.30;67.20
27314;DHT22;14800;48.174;9.798;2024-03-23T10:49:31;10.20;66.80
27314;DHT22;14800;48.174;9.798;2024-03-23T10:52:04;10.10;67.40
27314;DHT22;14800;48.174;9.798;2024-03-23T10:54:31;10.00;67.80
27314;DHT22;14800;48.174;9.798;2024-03-23T10:57:14;9.90;68.10
27314;DHT22;14800;48.174;9.798;2024-03-23T10:59:42;9.80;68.10
27314;DHT22;14800;48.174;9.798;2024-03-23T11:02:21;9.80;68.90
27314;DHT22;14800;48.174;9.798;2024-03-23T11:04:47;9.80;69.00
27314;DHT22;14800;48.174;9.798;2024-03-23T11:07:32;9.80;69.80
27314;DHT22;14800;48.174;9.798;2024-03-23T11:09:58;9.80;70.00
27314;DHT22;14800;48.174;9.798;2024-03-23T11:15:06;10.00;70.70
27314;DHT22;14800;48.174;9.798;2024-03-23T11:17:36;10.10;69.70
27314;DHT22;14800;48.174;9.798;2024-03-23T11:20:05;10.20;69.40
27314;DHT22;14800;48.174;9.798;2024-03-23T11:22:49;10.40;67.30
27314;DHT22;14800;48.174;9.798;2024-03-23T11:25:21;10.50;67.00
27314;DHT22;14800;48.174;9.798;2024-03-23T11:27:52;10.60;66.20
27314;DHT22;14800;48.174;9.798;2024-03-23T11:30:25;10.60;64.10
27314;DHT22;14800;48.174;9.798;2024-03-23T11:32:54;10.70;64.30
27314;DHT22;14800;48.174;9.798;2024-03-23T11:35:34;10.70;65.00
27314;DHT22;14800;48.174;9.798;2024-03-23T11:40:28;10.90;63.10
27314;DHT22;14800;48.174;9.798;2024-03-23T11:43:02;10.90;63.80
27314;DHT22;14800;48.174;9.798;2024-03-23T11:45:29;11.00;60.80
27314;DHT22;14800;48.174;9.798;2024-03-23T11:50:29;11.20;61.80
27314;DHT22;14800;48.174;9.798;2024-03-23T11:53:15;11.30;60.10
27314;DHT22;14800;48.174;9.798;2024-03-23T11:58:21;11.50;59.00
27314;DHT22;14800;48.174;9.798;2024-03-23T12:00:51;11.50;59.00
27314;DHT22;14800;48.174;9.798;2024-03-23T12:03:20;11.60;58.50
27314;DHT22;14800;48.174;9.798;2024-03-23T12:05:52;11.70;57.50
27314;DHT22;14800;48.174;9.798;2024-03-23T12:08:24;11.80;56.80
27314;DHT22;14800;48.174;9.798;2024-03-23T12:13:20;12.00;56.90
27314;DHT22;14800;48.174;9.798;2024-03-23T12:15:47;12.00;56.30
27314;DHT22;14800;48.174;9.798;2024-03-23T12:18:13;12.00;55.20
27314;DHT22;14800;48.174;9.798;2024-03-23T12:20:39;12.00;56.00
27314;DHT22;14800;48.174;9.798;2024-03-23T12:23:11;11.90;58.00
27314;DHT22;14800;48.174;9.798;2024-03-23T12:25:38;11.80;58.60
27314;DHT22;14800;48.174;9.798;2024-03-23T12:28:04;11.50;59.20
27314;DHT22;14800;48.174;9.798;2024-03-23T12:30:39;11.20;60.60
27314;DHT22;14800;48.174;9.798;2024-03-23T12:33:05;11.00;62.70
27314;DHT22;14800;48.174;9.798;2024-03-23T12:35:31;10.80;62.90
27314;DHT22;14800;48.174;9.798;2024-03-23T12:37:57;10.60;62.20
27314;DHT22;14800;48.174;9.798;2024-03-23T12:40:22;10.50;63.20
27314;DHT22;14800;48.174;9.798;2024-03-23T12:42:48;10.30;64.00
27314;DHT22;14800;48.174;9.798;2024-03-23T12:45:13;10.10;64.50
27314;DHT22;14800;48.174;9.798;2024-03-23T12:47:39;10.00;65.00
27314;DHT22;14800;48.174;9.798;2024-03-23T12:50:05;9.80;65.50
27314;DHT22;14800;48.174;9.798;2024-03-23T12:52:31;9.60;65.40
27314;DHT22;14800;48.174;9.798;2024-03-23T12:54:57;9.50;66.00
27314;DHT22;14800;48.174;9.798;2024-03-23T12:57:24;9.40;66.60
27314;DHT22;14800;48.174;9.798;2024-03-23T12:59:51;9.30;66.90
27314;DHT22;14800;48.174;9.798;2024-03-23T13:02:22;9.20;67.30
27314;DHT22;14800;48.174;9.798;2024-03-23T13:04:52;9.10;68.40
27314;DHT22;14800;48.174;9.798;2024-03-23T13:07:19;9.00;68.60
27314;DHT22;14800;48.174;9.798;2024-03-23T13:09:45;8.90;69.00
27314;DHT22;14800;48.174;9.798;2024-03-23T13:12:10;8.80;68.60
27314;DHT22;14800;48.174;9.798;2024-03-23T13:14:38;8.80;69.50
27314;DHT22;14800;48.174;9.798;2024-03-23T13:17:04;8.70;71.10
27314;DHT22;14800;48.174;9.798;2024-03-23T13:19:30;8.60;70.90
27314;DHT22;14800;48.174;9.798;2024-03-23T13:22:00;8.60;71.40
27314;DHT22;14800;48.174;9.798;2024-03-23T13:24:27;8.60;71.80
27314;DHT22;14800;48.174;9.798;2024-03-23T13:26:54;8.70;71.70
27314;DHT22;14800;48.174;9.798;2024-03-23T13:29:20;8.80;71.70
27314;DHT22;14800;48.174;9.798;2024-03-23T13:31:47;8.90;71.00
27314;DHT22;14800;48.174;9.798;2024-03-23T13:34:13;9.00;71.20
27314;DHT22;14800;48.174;9.798;2024-03-23T13:36:40;9.10;70.80
27314;DHT22;14800;48.174;9.798;2024-03-23T13:39:07;9.20;69.90
27314;DHT22;14800;48.174;9.798;2024-03-23T13:41:40;9.30;69.90
27314;DHT22;14800;48.174;9.798;2024-03-23T13:44:06;9.40;69.40
27314;DHT22;14800;48.174;9.798;2024-03-23T13:46:33;9.50;67.40
27314;DHT22;14800;48.174;9.798;2024-03-23T13:48:59;9.70;67.10
27314;DHT22;14800;48.174;9.798;2024-03-23T13:51:25;9.80;63.60
27314;DHT22;14800;48.174;9.798;2024-03-23T13:53:56;9.90;63.10
27314;DHT22;14800;48.174;9.798;2024-03-23T13:56:25;10.00;62.40
27314;DHT22;14800;48.174;9.798;2024-03-23T13:58:51;10.00;60.70
27314;DHT22;14800;48.174;9.798;2024-03-23T14:01:17;10.00;62.00
27314;DHT22;14800;48.174;9.798;2024-03-23T14:03:43;10.00;62.40
27314;DHT22;14800;48.174;9.798;2024-03-23T14:06:09;10.00;62.10
27314;DHT22;14800;48.174;9.798;2024-03-23T14:08:36;10.10;60.80
27314;DHT22;14800;48.174;9.798;2024-03-23T14:11:05;10.10;61.20
27314;DHT22;14800;48.174;9.798;2024-03-23T14:13:31;10.10;61.00
27314;DHT22;14800;48.174;9.798;2024-03-23T14:15:57;10.10;62.00
27314;DHT22;14800;48.174;9.798;2024-03-23T14:18:23;10.20;60.50
27314;DHT22;14800;48.174;9.798;2024-03-23T14:20:49;10.20;61.10
27314;DHT22;14800;48.174;9.798;2024-03-23T14:23:15;10.30;59.00
27314;DHT22;14800;48.174;9.798;2024-03-23T14:25:41;10.30;59.20
27314;DHT22;14800;48.174;9.798;2024-03-23T14:28:07;10.30;59.30
27314;DHT22;14800;48.174;9.798;2024-03-23T14:30:39;10.30;59.20
27314;DHT22;14800;48.174;9.798;2024-03-23T14:33:04;10.30;58.90
27314;DHT22;14800;48.174;9.798;2024-03-23T14:35:30;10.40;59.00
27314;DHT22;14800;48.174;9.798;2024-03-23T14:37:56;10.40;59.00
27314;DHT22;14800;48.174;9.798;2024-03-23T14:40:22;10.40;59.40
27314;DHT22;14800;48.174;9.798;2024-03-23T14:42:47;10.40;59.00
27314;DHT22;14800;48.174;9.798;2024-03-23T14:45:13;10.40;59.60
27314;DHT22;14800;48.174;9.798;2024-03-23T14:47:40;10.40;59.30
27314;DHT22;14800;48.174;9.798;2024-03-23T14:50:07;10.30;58.70
27314;DHT22;14800;48.174;9.798;2024-03-23T14:52:34;10.30;59.10
27314;DHT22;14800;48.174;9.798;2024-03-23T14:54:59;10.30;59.00
27314;DHT22;14800;48.174;9.798;2024-03-23T14:57:25;10.40;60.20
27314;DHT22;14800;48.174;9.798;2024-03-23T14:59:50;10.40;59.30
27314;DHT22;14800;48.174;9.798;2024-03-23T15:02:17;10.40;59.50
27314;DHT22;14800;48.174;9.798;2024-03-23T15:04:42;10.40;59.90
27314;DHT22;14800;48.174;9.798;2024-03-23T15:07:08;10.40;60.00
27314;DHT22;14800;48.174;9.798;2024-03-23T15:09:34;10.40;59.80
27314;DHT22;14800;48.174;9.798;2024-03-23T15:11:59;10.50;59.90
27314;DHT22;14800;48.174;9.798;2024-03-23T15:14:25;10.50;59.60
27314;DHT22;14800;48.174;9.798;2024-03-23T15:16:51;10.50;59.20
27314;DHT22;14800;48.174;9.798;2024-03-23T15:19:18;10.50;59.00
27314;DHT22;14800;48.174;9.798;2024-03-23T15:21:44;10.60;58.40
27314;DHT22;14800;48.174;9.798;2024-03-23T15:24:09;10.60;57.10
27314;DHT22;14800;48.174;9.798;2024-03-23T15:26:38;10.60;56.80
27314;DHT22;14800;48.174;9.798;2024-03-23T15:29:04;10.50;56.60
27314;DHT22;14800;48.174;9.798;2024-03-23T15:31:42;10.50;57.30
27314;DHT22;14800;48.174;9.798;2024-03-23T15:34:08;10.40;58.90
27314;DHT22;14800;48.174;9.798;2024-03-23T15:36:36;10.30;59.20
27314;DHT22;14800;48.174;9.798;2024-03-23T15:39:04;10.30;59.60
27314;DHT22;14800;48.174;9.798;2024-03-23T15:41:29;10.20;58.50
27314;DHT22;14800;48.174;9.798;2024-03-23T15:43:56;10.20;58.00
27314;DHT22;14800;48.174;9.798;2024-03-23T15:46:22;10.30;57.70
27314;DHT22;14800;48.174;9.798;2024-03-23T15:48:47;10.30;57.60
27314;DHT22;14800;48.174;9.798;2024-03-23T15:51:14;10.30;57.80
27314;DHT22;14800;48.174;9.798;2024-03-23T15:53:40;10.40;58.70
27314;DHT22;14800;48.174;9.798;2024-03-23T15:56:06;10.40;58.20
27314;DHT22;14800;48.174;9.798;2024-03-23T15:58:32;10.50;58.50
27314;DHT22;14800;48.174;9.798;2024-03-23T16:01:04;10.50;58.80
27314;DHT22;14800;48.174;9.798;2024-03-23T16:03:31;10.50;58.80
27314;DHT22;14800;48.174;9.798;2024-03-23T16:06:02;10.50;58.80
27314;DHT22;14800;48.174;9.798;2024-03-23T16:08:29;10.60;58.40
27314;DHT22;14800;48.174;9.798;2024-03-23T16:11:00;10.60;58.30
27314;DHT22;14800;48.174;9.798;2024-03-23T16:13:25;10.60;57.40
27314;DHT22;14800;48.174;9.798;2024-03-23T16:16:01;10.60;57.90
27314;DHT22;14800;48.174;9.798;2024-03-23T16:18:37;10.50;60.80
27314;DHT22;14800;48.174;9.798;2024-03-23T16:21:05;10.30;61.90
27314;DHT22;14800;48.174;9.798;2024-03-23T16:23:35;10.00;62.70
27314;DHT22;14800;48.174;9.798;2024-03-23T16:26:04;9.80;64.00
27314;DHT22;14800;48.174;9.798;2024-03-23T16:28:35;9.50;64.50
27314;DHT22;14800;48.174;9.798;2024-03-23T16:31:08;9.20;65.30
27314;DHT22;14800;48.174;9.798;2024-03-23T16:33:35;9.00;66.90
27314;DHT22;14800;48.174;9.798;2024-03-23T16:36:04;8.80;67.20
27314;DHT22;14800;48.174;9.798;2024-03-23T16:38:42;8.60;68.50
27314;DHT22;14800;48.174;9.798;2024-03-23T16:41:09;8.50;69.90